sensor_id;sensor_type;location;lat;lon;timestamp;P1;durP1;ratioP1;P2;durP2;ratioP2
8260;SDS011;64115;50.170;8.242;2022-12-20T00:00:51;39.63;;;20.63;;
8260;SDS011;64115;50.170;8.242;2022-12-20T00:03:18;30.83;;;18.47;;
8260;SDS011;64115;50.170;8.242;2022-12-20T00:05:45;34.63;;;18.23;;
8260;SDS011;64115;50.170;8.242;2022-12-20T00:08:14;37.60;;;19.00;;
8260;SDS011;64115;50.170;8.242;2022-12-20T00:10:43;29.43;;;17.03;;
8260;SDS011;64115;50.170;8.242;2022-12-20T00:13:11;32.33;;;18.50;;
8260;SDS011;64115;50.170;8.242;2022-12-20T00:15:38;36.30;;;18.27;;
8260;SDS011;64115;50.170;8.242;2022-12-20T00:18:05;53.53;;;21.23;;
8260;SDS011;64115;50.170;8.242;2022-12-20T00:20:32;39.37;;;19.40;;
8260;SDS011;64115;50.170;8.242;2022-12-20T00:22:59;36.13;;;17.50;;
8260;SDS011;64115;50.170;8.242;2022-12-20T00:25:27;40.67;;;18.07;;
8260;SDS011;64115;50.170;8.242;2022-12-20T00:27:54;36.87;;;18.13;;
8260;SDS011;64115;50.170;8.242;2022-12-20T00:30:21;35.63;;;18.03;;
8260;SDS011;64115;50.170;8.242;2022-12-20T00:32:48;30.57;;;15.53;;
8260;SDS011;64115;50.170;8.242;2022-12-20T00:35:15;30.27;;;14.27;;
8260;SDS011;64115;50.170;8.242;2022-12-20T00:37:42;22.27;;;13.67;;
8260;SDS011;64115;50.170;8.242;2022-12-20T00:40:08;23.20;;;13.23;;
8260;SDS011;64115;50.170;8.242;2022-12-20T00:42:37;19.93;;;12.97;;
8260;SDS011;64115;50.170;8.242;2022-12-20T00:45:04;20.67;;;12.47;;
8260;SDS011;64115;50.170;8.242;2022-12-20T00:47:31;21.73;;;12.43;;
8260;SDS011;64115;50.170;8.242;2022-12-20T00:49:59;17.03;;;11.07;;
8260;SDS011;64115;50.170;8.242;2022-12-20T00:52:25;22.13;;;12.50;;
8260;SDS011;64115;50.170;8.242;2022-12-20T00:54:52;19.57;;;11.87;;
8260;SDS011;64115;50.170;8.242;2022-12-20T00:57:19;22.40;;;13.27;;
8260;SDS011;64115;50.170;8.242;2022-12-20T00:59:47;22.73;;;12.87;;
8260;SDS011;64115;50.170;8.242;2022-12-20T01:02:14;21.97;;;12.73;;
8260;SDS011;64115;50.170;8.242;2022-12-20T01:04:41;16.73;;;10.97;;
8260;SDS011;64115;50.170;8.242;2022-12-20T01:07:08;22.17;;;12.20;;
8260;SDS011;64115;50.170;8.242;2022-12-20T01:09:35;17.03;;;11.43;;
8260;SDS011;64115;50.170;8.242;2022-12-20T01:12:02;16.63;;;11.77;;
8260;SDS011;64115;50.170;8.242;2022-12-20T01:14:29;17.47;;;11.67;;
8260;SDS011;64115;50.170;8.242;2022-12-20T01:16:57;21.00;;;12.83;;
8260;SDS011;64115;50.170;8.242;2022-12-20T01:19:24;17.87;;;11.83;;
8260;SDS011;64115;50.170;8.242;2022-12-20T01:21:50;18.67;;;11.83;;
8260;SDS011;64115;50.170;8.242;2022-12-20T01:24:17;18.80;;;12.20;;
8260;SDS011;64115;50.170;8.242;2022-12-20T01:26:45;16.87;;;11.80;;
8260;SDS011;64115;50.170;8.242;2022-12-20T01:29:13;18.43;;;11.40;;
8260;SDS011;64115;50.170;8.242;2022-12-20T01:31:41;22.67;;;13.27;;
8260;SDS011;64115;50.170;8.242;2022-12-20T01:34:09;17.60;;;11.50;;
8260;SDS011;64115;50.170;8.242;2022-12-20T01:36:37;15.70;;;11.57;;
8260;SDS011;64115;50.170;8.242;2022-12-20T01:39:05;14.67;;;10.93;;
8260;SDS011;64115;50.170;8.242;2022-12-20T01:41:33;17.57;;;12.10;;
8260;SDS011;64115;50.170;8.242;2022-12-20T01:44:03;14.67;;;10.40;;
8260;SDS011;64115;50.170;8.242;2022-12-20T01:46:32;16.40;;;11.77;;
8260;SDS011;64115;50.170;8.242;2022-12-20T01:49:01;19.50;;;12.40;;
8260;SDS011;64115;50.170;8.242;2022-12-20T01:51:37;16.17;;;12.30;;
8260;SDS011;64115;50.170;8.242;2022-12-20T01:54:07;16.10;;;11.70;;
8260;SDS011;64115;50.170;8.242;2022-12-20T01:56:38;22.33;;;12.00;;
8260;SDS011;64115;50.170;8.242;2022-12-20T01:59:08;16.23;;;11.30;;
8260;SDS011;64115;50.170;8.242;2022-12-20T02:01:38;16.57;;;10.80;;
8260;SDS011;64115;50.170;8.242;2022-12-20T02:04:06;15.20;;;10.73;;
8260;SDS011;64115;50.170;8.242;2022-12-20T02:06:32;16.13;;;11.20;;
8260;SDS011;64115;50.170;8.242;2022-12-20T02:09:02;13.23;;;9.93;;
8260;SDS011;64115;50.170;8.242;2022-12-20T02:11:36;14.80;;;10.13;;
8260;SDS011;64115;50.170;8.242;2022-12-20T02:14:14;11.67;;;9.67;;
8260;SDS011;64115;50.170;8.242;2022-12-20T02:16:56;14.17;;;11.27;;
8260;SDS011;64115;50.170;8.242;2022-12-20T02:19:37;16.10;;;11.37;;
8260;SDS011;64115;50.170;8.242;2022-12-20T02:22:22;17.53;;;11.60;;
8260;SDS011;64115;50.170;8.242;2022-12-20T02:28:00;14.77;;;9.10;;
8260;SDS011;64115;50.170;8.242;2022-12-20T02:30:36;14.67;;;9.30;;
8260;SDS011;64115;50.170;8.242;2022-12-20T02:33:07;13.77;;;9.50;;
8260;SDS011;64115;50.170;8.242;2022-12-20T02:35:38;11.97;;;8.93;;
8260;SDS011;64115;50.170;8.242;2022-12-20T02:40:52;13.20;;;9.93;;
8260;SDS011;64115;50.170;8.242;2022-12-20T02:43:22;12.80;;;9.50;;
8260;SDS011;64115;50.170;8.242;2022-12-20T02:46:10;14.07;;;10.27;;
8260;SDS011;64115;50.170;8.242;2022-12-20T02:48:38;16.10;;;11.60;;
8260;SDS011;64115;50.170;8.242;2022-12-20T02:51:07;19.03;;;12.70;;
8260;SDS011;64115;50.170;8.242;2022-12-20T02:53:36;16.00;;;11.87;;
8260;SDS011;64115;50.170;8.242;2022-12-20T02:56:04;18.10;;;13.77;;
8260;SDS011;64115;50.170;8.242;2022-12-20T02:58:37;21.37;;;13.80;;
8260;SDS011;64115;50.170;8.242;2022-12-20T03:01:10;20.37;;;14.60;;
8260;SDS011;64115;50.170;8.242;2022-12-20T03:03:41;22.00;;;14.67;;
8260;SDS011;64115;50.170;8.242;2022-12-20T03:06:08;19.53;;;14.17;;
8260;SDS011;64115;50.170;8.242;2022-12-20T03:08:35;20.27;;;15.10;;
8260;SDS011;64115;50.170;8.242;2022-12-20T03:11:02;24.13;;;15.33;;
8260;SDS011;64115;50.170;8.242;2022-12-20T03:13:29;20.93;;;15.00;;
8260;SDS011;64115;50.170;8.242;2022-12-20T03:15:56;24.43;;;15.60;;
8260;SDS011;64115;50.170;8.242;2022-12-20T03:18:24;22.13;;;16.20;;
8260;SDS011;64115;50.170;8.242;2022-12-20T03:20:51;24.40;;;16.13;;
8260;SDS011;64115;50.170;8.242;2022-12-20T03:23:18;20.20;;;15.47;;
8260;SDS011;64115;50.170;8.242;2022-12-20T03:25:46;25.80;;;16.83;;
8260;SDS011;64115;50.170;8.242;2022-12-20T03:28:12;28.30;;;17.53;;
8260;SDS011;64115;50.170;8.242;2022-12-20T03:30:39;21.10;;;15.77;;
8260;SDS011;64115;50.170;8.242;2022-12-20T03:33:06;24.00;;;16.73;;
8260;SDS011;64115;50.170;8.242;2022-12-20T03:35:34;25.80;;;17.07;;
8260;SDS011;64115;50.170;8.242;2022-12-20T03:38:01;27.93;;;18.40;;
8260;SDS011;64115;50.170;8.242;2022-12-20T03:40:28;28.43;;;18.30;;
8260;SDS011;64115;50.170;8.242;2022-12-20T03:42:55;28.73;;;18.67;;
8260;SDS011;64115;50.170;8.242;2022-12-20T03:45:21;26.53;;;17.97;;
8260;SDS011;64115;50.170;8.242;2022-12-20T03:47:48;25.20;;;16.47;;
8260;SDS011;64115;50.170;8.242;2022-12-20T03:50:15;25.00;;;17.17;;
8260;SDS011;64115;50.170;8.242;2022-12-20T03:52:43;26.70;;;17.10;;
8260;SDS011;64115;50.170;8.242;2022-12-20T03:55:10;25.03;;;17.43;;
8260;SDS011;64115;50.170;8.242;2022-12-20T03:57:37;24.00;;;16.33;;
8260;SDS011;64115;50.170;8.242;2022-12-20T04:00:05;23.87;;;16.83;;
8260;SDS011;64115;50.170;8.242;2022-12-20T04:02:33;25.67;;;16.00;;
8260;SDS011;64115;50.170;8.242;2022-12-20T04:05:00;22.00;;;14.97;;
8260;SDS011;64115;50.170;8.242;2022-12-20T04:07:26;21.80;;;14.57;;
8260;SDS011;64115;50.170;8.242;2022-12-20T04:09:55;20.90;;;14.47;;
8260;SDS011;64115;50.170;8.242;2022-12-20T04:12:21;22.57;;;13.97;;
8260;SDS011;64115;50.170;8.242;2022-12-20T04:14:48;19.83;;;12.60;;
8260;SDS011;64115;50.170;8.242;2022-12-20T04:17:15;16.63;;;12.30;;
8260;SDS011;64115;50.170;8.242;2022-12-20T04:19:42;17.60;;;11.33;;
8260;SDS011;64115;50.170;8.242;2022-12-20T04:22:08;14.67;;;10.73;;
8260;SDS011;64115;50.170;8.242;2022-12-20T04:24:35;14.60;;;9.93;;
8260;SDS011;64115;50.170;8.242;2022-12-20T04:27:04;13.17;;;9.73;;
8260;SDS011;64115;50.170;8.242;2022-12-20T04:29:31;11.90;;;9.33;;
8260;SDS011;64115;50.170;8.242;2022-12-20T04:31:57;13.40;;;8.97;;
8260;SDS011;64115;50.170;8.242;2022-12-20T04:34:24;12.20;;;9.50;;
8260;SDS011;64115;50.170;8.242;2022-12-20T04:36:51;11.27;;;8.20;;
8260;SDS011;64115;50.170;8.242;2022-12-20T04:39:18;9.67;;;7.77;;
8260;SDS011;64115;50.170;8.242;2022-12-20T04:41:44;11.77;;;8.27;;
8260;SDS011;64115;50.170;8.242;2022-12-20T04:44:13;12.30;;;9.20;;
8260;SDS011;64115;50.170;8.242;2022-12-20T04:46:39;10.30;;;8.90;;
8260;SDS011;64115;50.170;8.242;2022-12-20T04:49:06;12.10;;;9.57;;
8260;SDS011;64115;50.170;8.242;2022-12-20T04:51:33;13.03;;;9.40;;
8260;SDS011;64115;50.170;8.242;2022-12-20T04:54:00;12.77;;;10.10;;
8260;SDS011;64115;50.170;8.242;2022-12-20T04:56:27;13.10;;;10.60;;
8260;SDS011;64115;50.170;8.242;2022-12-20T04:58:55;15.03;;;11.07;;
8260;SDS011;64115;50.170;8.242;2022-12-20T05:01:24;15.33;;;11.20;;
8260;SDS011;64115;50.170;8.242;2022-12-20T05:03:51;12.67;;;10.33;;
8260;SDS011;64115;50.170;8.242;2022-12-20T05:06:19;13.63;;;10.57;;
8260;SDS011;64115;50.170;8.242;2022-12-20T05:08:46;15.63;;;12.27;;
8260;SDS011;64115;50.170;8.242;2022-12-20T05:11:13;20.87;;;13.37;;
8260;SDS011;64115;50.170;8.242;2022-12-20T05:13:40;16.23;;;12.40;;
8260;SDS011;64115;50.170;8.242;2022-12-20T05:16:07;20.67;;;14.20;;
8260;SDS011;64115;50.170;8.242;2022-12-20T05:18:35;20.23;;;13.83;;
8260;SDS011;64115;50.170;8.242;2022-12-20T05:21:02;18.23;;;13.63;;
8260;SDS011;64115;50.170;8.242;2022-12-20T05:23:47;19.33;;;13.07;;
8260;SDS011;64115;50.170;8.242;2022-12-20T05:26:32;18.10;;;12.57;;
8260;SDS011;64115;50.170;8.242;2022-12-20T05:29:00;17.30;;;12.33;;
8260;SDS011;64115;50.170;8.242;2022-12-20T05:31:27;16.93;;;12.43;;
8260;SDS011;64115;50.170;8.242;2022-12-20T05:33:55;16.40;;;12.00;;
8260;SDS011;64115;50.170;8.242;2022-12-20T05:36:22;16.63;;;12.30;;
8260;SDS011;64115;50.170;8.242;2022-12-20T05:38:48;17.80;;;11.57;;
8260;SDS011;64115;50.170;8.242;2022-12-20T05:41:15;15.60;;;12.37;;
8260;SDS011;64115;50.170;8.242;2022-12-20T05:43:42;15.93;;;11.33;;
8260;SDS011;64115;50.170;8.242;2022-12-20T05:46:09;15.63;;;11.10;;
8260;SDS011;64115;50.170;8.242;2022-12-20T05:48:36;15.53;;;11.43;;
8260;SDS011;64115;50.170;8.242;2022-12-20T05:51:04;16.50;;;11.30;;
8260;SDS011;64115;50.170;8.242;2022-12-20T05:53:31;17.37;;;11.43;;
8260;SDS011;64115;50.170;8.242;2022-12-20T05:55:58;14.63;;;10.60;;
8260;SDS011;64115;50.170;8.242;2022-12-20T05:58:26;13.90;;;9.73;;
8260;SDS011;64115;50.170;8.242;2022-12-20T06:00:54;14.37;;;9.37;;
8260;SDS011;64115;50.170;8.242;2022-12-20T06:03:21;11.83;;;8.70;;
8260;SDS011;64115;50.170;8.242;2022-12-20T06:05:48;11.27;;;7.97;;
8260;SDS011;64115;50.170;8.242;2022-12-20T06:08:16;10.73;;;8.27;;
8260;SDS011;64115;50.170;8.242;2022-12-20T06:10:43;8.40;;;7.47;;
8260;SDS011;64115;50.170;8.242;2022-12-20T06:13:09;8.80;;;6.23;;
8260;SDS011;64115;50.170;8.242;2022-12-20T06:15:37;9.53;;;8.53;;
8260;SDS011;64115;50.170;8.242;2022-12-20T06:18:03;10.57;;;9.40;;
8260;SDS011;64115;50.170;8.242;2022-12-20T06:20:31;12.53;;;9.50;;
8260;SDS011;64115;50.170;8.242;2022-12-20T06:22:58;9.43;;;8.30;;
8260;SDS011;64115;50.170;8.242;2022-12-20T06:25:26;9.53;;;8.10;;
8260;SDS011;64115;50.170;8.242;2022-12-20T06:27:53;13.37;;;8.20;;
8260;SDS011;64115;50.170;8.242;2022-12-20T06:30:20;11.93;;;8.27;;
8260;SDS011;64115;50.170;8.242;2022-12-20T06:32:47;11.83;;;8.43;;
8260;SDS011;64115;50.170;8.242;2022-12-20T06:35:14;10.67;;;8.60;;
8260;SDS011;64115;50.170;8.242;2022-12-20T06:37:41;10.43;;;8.70;;
8260;SDS011;64115;50.170;8.242;2022-12-20T06:40:08;14.03;;;10.40;;
8260;SDS011;64115;50.170;8.242;2022-12-20T06:42:38;13.33;;;10.00;;
8260;SDS011;64115;50.170;8.242;2022-12-20T06:45:06;13.30;;;10.50;;
8260;SDS011;64115;50.170;8.242;2022-12-20T06:47:33;13.37;;;9.10;;
8260;SDS011;64115;50.170;8.242;2022-12-20T06:50:00;13.97;;;9.57;;
8260;SDS011;64115;50.170;8.242;2022-12-20T06:52:28;16.23;;;12.13;;
8260;SDS011;64115;50.170;8.242;2022-12-20T06:54:54;15.00;;;11.47;;
8260;SDS011;64115;50.170;8.242;2022-12-20T06:57:21;17.20;;;12.53;;
8260;SDS011;64115;50.170;8.242;2022-12-20T06:59:50;16.20;;;11.03;;
8260;SDS011;64115;50.170;8.242;2022-12-20T07:02:16;16.97;;;12.37;;
8260;SDS011;64115;50.170;8.242;2022-12-20T07:04:43;15.80;;;10.70;;
8260;SDS011;64115;50.170;8.242;2022-12-20T07:07:10;17.60;;;12.53;;
8260;SDS011;64115;50.170;8.242;2022-12-20T07:09:38;17.17;;;11.90;;
8260;SDS011;64115;50.170;8.242;2022-12-20T07:12:05;13.87;;;9.63;;
8260;SDS011;64115;50.170;8.242;2022-12-20T07:14:32;12.60;;;9.27;;
8260;SDS011;64115;50.170;8.242;2022-12-20T07:17:00;19.87;;;13.70;;
8260;SDS011;64115;50.170;8.242;2022-12-20T07:19:28;10.90;;;8.97;;
8260;SDS011;64115;50.170;8.242;2022-12-20T07:21:55;11.50;;;8.33;;
8260;SDS011;64115;50.170;8.242;2022-12-20T07:24:22;12.93;;;8.17;;
8260;SDS011;64115;50.170;8.242;2022-12-20T07:26:48;15.17;;;10.33;;
8260;SDS011;64115;50.170;8.242;2022-12-20T07:29:15;10.77;;;8.17;;
8260;SDS011;64115;50.170;8.242;2022-12-20T07:31:42;10.20;;;7.43;;
8260;SDS011;64115;50.170;8.242;2022-12-20T07:34:10;9.10;;;7.00;;
8260;SDS011;64115;50.170;8.242;2022-12-20T07:36:37;8.77;;;7.57;;
8260;SDS011;64115;50.170;8.242;2022-12-20T07:39:04;12.50;;;7.43;;
8260;SDS011;64115;50.170;8.242;2022-12-20T07:41:31;12.20;;;7.93;;
8260;SDS011;64115;50.170;8.242;2022-12-20T07:43:57;9.17;;;7.10;;
8260;SDS011;64115;50.170;8.242;2022-12-20T07:46:24;10.67;;;7.20;;
8260;SDS011;64115;50.170;8.242;2022-12-20T07:48:52;10.87;;;7.47;;
8260;SDS011;64115;50.170;8.242;2022-12-20T07:51:22;8.47;;;6.83;;
8260;SDS011;64115;50.170;8.242;2022-12-20T07:53:52;8.50;;;7.60;;
8260;SDS011;64115;50.170;8.242;2022-12-20T07:56:23;10.27;;;7.30;;
8260;SDS011;64115;50.170;8.242;2022-12-20T07:58:52;8.33;;;6.53;;
8260;SDS011;64115;50.170;8.242;2022-12-20T08:01:22;9.83;;;6.60;;
8260;SDS011;64115;50.170;8.242;2022-12-20T08:03:51;9.17;;;7.93;;
8260;SDS011;64115;50.170;8.242;2022-12-20T08:06:22;15.77;;;11.07;;
8260;SDS011;64115;50.170;8.242;2022-12-20T08:08:50;13.73;;;7.83;;
8260;SDS011;64115;50.170;8.242;2022-12-20T08:11:20;19.20;;;12.73;;
8260;SDS011;64115;50.170;8.242;2022-12-20T08:13:47;29.80;;;18.77;;
8260;SDS011;64115;50.170;8.242;2022-12-20T08:16:15;9.57;;;7.17;;
8260;SDS011;64115;50.170;8.242;2022-12-20T08:18:42;11.23;;;7.40;;
8260;SDS011;64115;50.170;8.242;2022-12-20T08:21:08;7.07;;;6.37;;
8260;SDS011;64115;50.170;8.242;2022-12-20T08:23:38;6.87;;;6.17;;
8260;SDS011;64115;50.170;8.242;2022-12-20T08:26:05;7.73;;;6.53;;
8260;SDS011;64115;50.170;8.242;2022-12-20T08:28:32;8.47;;;6.20;;
8260;SDS011;64115;50.170;8.242;2022-12-20T08:30:59;7.90;;;6.13;;
8260;SDS011;64115;50.170;8.242;2022-12-20T08:33:26;7.03;;;6.33;;
8260;SDS011;64115;50.170;8.242;2022-12-20T08:35:57;8.40;;;6.40;;
8260;SDS011;64115;50.170;8.242;2022-12-20T08:38:25;8.07;;;6.50;;
8260;SDS011;64115;50.170;8.242;2022-12-20T08:40:53;8.17;;;7.07;;
8260;SDS011;64115;50.170;8.242;2022-12-20T08:43:20;7.90;;;6.73;;
8260;SDS011;64115;50.170;8.242;2022-12-20T08:45:51;9.37;;;7.53;;
8260;SDS011;64115;50.170;8.242;2022-12-20T08:48:18;7.50;;;6.07;;
8260;SDS011;64115;50.170;8.242;2022-12-20T08:50:52;6.93;;;6.17;;
8260;SDS011;64115;50.170;8.242;2022-12-20T08:53:19;6.63;;;5.93;;
8260;SDS011;64115;50.170;8.242;2022-12-20T08:55:46;6.50;;;5.37;;
8260;SDS011;64115;50.170;8.242;2022-12-20T08:58:14;10.37;;;6.80;;
8260;SDS011;64115;50.170;8.242;2022-12-20T09:00:41;9.93;;;6.80;;
8260;SDS011;64115;50.170;8.242;2022-12-20T09:03:08;7.53;;;6.67;;
8260;SDS011;64115;50.170;8.242;2022-12-20T09:05:41;10.33;;;6.73;;
8260;SDS011;64115;50.170;8.242;2022-12-20T09:08:09;7.60;;;6.40;;
8260;SDS011;64115;50.170;8.242;2022-12-20T09:10:36;6.77;;;5.63;;
8260;SDS011;64115;50.170;8.242;2022-12-20T09:13:02;6.10;;;5.50;;
8260;SDS011;64115;50.170;8.242;2022-12-20T09:15:31;6.87;;;5.70;;
8260;SDS011;64115;50.170;8.242;2022-12-20T09:17:59;7.40;;;5.80;;
8260;SDS011;64115;50.170;8.242;2022-12-20T09:20:27;6.33;;;5.73;;
8260;SDS011;64115;50.170;8.242;2022-12-20T09:22:54;9.30;;;6.10;;
8260;SDS011;64115;50.170;8.242;2022-12-20T09:25:23;6.30;;;5.70;;
8260;SDS011;64115;50.170;8.242;2022-12-20T09:27:49;6.70;;;5.37;;
8260;SDS011;64115;50.170;8.242;2022-12-20T09:30:16;6.43;;;5.73;;
8260;SDS011;64115;50.170;8.242;2022-12-20T09:32:45;7.47;;;5.03;;
8260;SDS011;64115;50.170;8.242;2022-12-20T09:35:12;5.83;;;5.20;;
8260;SDS011;64115;50.170;8.242;2022-12-20T09:37:39;5.67;;;5.17;;
8260;SDS011;64115;50.170;8.242;2022-12-20T09:40:08;6.10;;;5.50;;
8260;SDS011;64115;50.170;8.242;2022-12-20T09:42:41;6.37;;;4.83;;
8260;SDS011;64115;50.170;8.242;2022-12-20T09:45:08;5.67;;;4.67;;
8260;SDS011;64115;50.170;8.242;2022-12-20T09:47:45;5.50;;;5.00;;
8260;SDS011;64115;50.170;8.242;2022-12-20T09:50:13;7.37;;;5.10;;
8260;SDS011;64115;50.170;8.242;2022-12-20T09:52:50;6.13;;;4.97;;
8260;SDS011;64115;50.170;8.242;2022-12-20T09:55:30;7.60;;;5.43;;
8260;SDS011;64115;50.170;8.242;2022-12-20T09:58:09;9.03;;;5.80;;
8260;SDS011;64115;50.170;8.242;2022-12-20T10:00:48;7.23;;;5.60;;
8260;SDS011;64115;50.170;8.242;2022-12-20T10:03:20;5.80;;;5.30;;
8260;SDS011;64115;50.170;8.242;2022-12-20T10:05:50;5.63;;;5.13;;
8260;SDS011;64115;50.170;8.242;2022-12-20T10:08:23;6.37;;;5.23;;
8260;SDS011;64115;50.170;8.242;2022-12-20T10:11:03;5.80;;;4.93;;
8260;SDS011;64115;50.170;8.242;2022-12-20T10:13:41;8.13;;;5.70;;
8260;SDS011;64115;50.170;8.242;2022-12-20T10:16:23;6.60;;;5.10;;
8260;SDS011;64115;50.170;8.242;2022-12-20T10:19:02;6.60;;;5.43;;
8260;SDS011;64115;50.170;8.242;2022-12-20T10:21:45;6.33;;;5.70;;
8260;SDS011;64115;50.170;8.242;2022-12-20T10:24:20;8.57;;;5.37;;
8260;SDS011;64115;50.170;8.242;2022-12-20T10:26:57;5.93;;;5.07;;
8260;SDS011;64115;50.170;8.242;2022-12-20T10:29:35;5.13;;;4.63;;
8260;SDS011;64115;50.170;8.242;2022-12-20T10:32:04;5.57;;;4.93;;
8260;SDS011;64115;50.170;8.242;2022-12-20T10:34:41;6.77;;;5.07;;
8260;SDS011;64115;50.170;8.242;2022-12-20T10:37:16;5.43;;;4.93;;
8260;SDS011;64115;50.170;8.242;2022-12-20T10:39:43;5.00;;;4.60;;
8260;SDS011;64115;50.170;8.242;2022-12-20T10:42:24;8.33;;;5.33;;
8260;SDS011;64115;50.170;8.242;2022-12-20T10:44:57;6.77;;;5.80;;
8260;SDS011;64115;50.170;8.242;2022-12-20T10:47:30;6.43;;;5.73;;
8260;SDS011;64115;50.170;8.242;2022-12-20T10:50:14;5.77;;;5.27;;
8260;SDS011;64115;50.170;8.242;2022-12-20T10:52:44;7.27;;;5.60;;
8260;SDS011;64115;50.170;8.242;2022-12-20T10:55:31;8.00;;;5.47;;
8260;SDS011;64115;50.170;8.242;2022-12-20T10:58:02;5.87;;;5.20;;
8260;SDS011;64115;50.170;8.242;2022-12-20T11:00:30;6.57;;;5.00;;
8260;SDS011;64115;50.170;8.242;2022-12-20T11:03:03;5.70;;;5.20;;
8260;SDS011;64115;50.170;8.242;2022-12-20T11:05:37;5.60;;;5.10;;
8260;SDS011;64115;50.170;8.242;2022-12-20T11:08:12;5.53;;;5.03;;
8260;SDS011;64115;50.170;8.242;2022-12-20T11:10:40;8.50;;;6.53;;
8260;SDS011;64115;50.170;8.242;2022-12-20T11:13:17;8.50;;;6.17;;
8260;SDS011;64115;50.170;8.242;2022-12-20T11:15:47;4.70;;;4.30;;
8260;SDS011;64115;50.170;8.242;2022-12-20T11:18:16;10.47;;;7.20;;
8260;SDS011;64115;50.170;8.242;2022-12-20T11:20:52;5.63;;;5.07;;
8260;SDS011;64115;50.170;8.242;2022-12-20T11:23:24;6.00;;;4.70;;
8260;SDS011;64115;50.170;8.242;2022-12-20T11:26:00;5.43;;;4.90;;
8260;SDS011;64115;50.170;8.242;2022-12-20T11:28:45;6.57;;;5.90;;
8260;SDS011;64115;50.170;8.242;2022-12-20T11:31:24;7.00;;;5.13;;
8260;SDS011;64115;50.170;8.242;2022-12-20T11:34:02;5.37;;;4.87;;
8260;SDS011;64115;50.170;8.242;2022-12-20T11:36:47;5.17;;;4.73;;
8260;SDS011;64115;50.170;8.242;2022-12-20T11:39:27;5.17;;;4.23;;
8260;SDS011;64115;50.170;8.242;2022-12-20T11:42:01;5.03;;;4.53;;
8260;SDS011;64115;50.170;8.242;2022-12-20T11:44:36;7.37;;;4.90;;
8260;SDS011;64115;50.170;8.242;2022-12-20T11:47:20;6.10;;;4.60;;
8260;SDS011;64115;50.170;8.242;2022-12-20T11:50:10;5.20;;;4.70;;
8260;SDS011;64115;50.170;8.242;2022-12-20T11:52:47;6.60;;;4.37;;
8260;SDS011;64115;50.170;8.242;2022-12-20T11:55:17;4.73;;;4.30;;
8260;SDS011;64115;50.170;8.242;2022-12-20T11:57:50;6.27;;;4.37;;
8260;SDS011;64115;50.170;8.242;2022-12-20T12:00:23;4.10;;;3.80;;
8260;SDS011;64115;50.170;8.242;2022-12-20T12:02:52;4.53;;;3.60;;
8260;SDS011;64115;50.170;8.242;2022-12-20T12:05:22;4.53;;;4.13;;
8260;SDS011;64115;50.170;8.242;2022-12-20T12:07:55;4.77;;;3.80;;
8260;SDS011;64115;50.170;8.242;2022-12-20T12:10:28;4.17;;;3.77;;
8260;SDS011;64115;50.170;8.242;2022-12-20T12:13:01;5.03;;;3.90;;
8260;SDS011;64115;50.170;8.242;2022-12-20T12:15:33;5.60;;;4.50;;
8260;SDS011;64115;50.170;8.242;2022-12-20T12:18:04;5.17;;;4.40;;
8260;SDS011;64115;50.170;8.242;2022-12-20T12:20:44;4.83;;;4.23;;
8260;SDS011;64115;50.170;8.242;2022-12-20T12:23:20;4.10;;;3.70;;
8260;SDS011;64115;50.170;8.242;2022-12-20T12:25:51;8.50;;;4.83;;
8260;SDS011;64115;50.170;8.242;2022-12-20T12:28:18;6.40;;;4.30;;
8260;SDS011;64115;50.170;8.242;2022-12-20T12:30:46;4.50;;;3.90;;
8260;SDS011;64115;50.170;8.242;2022-12-20T12:33:21;4.10;;;3.60;;
8260;SDS011;64115;50.170;8.242;2022-12-20T12:35:57;6.73;;;4.27;;
8260;SDS011;64115;50.170;8.242;2022-12-20T12:42:15;4.03;;;3.67;;
8260;SDS011;64115;50.170;8.242;2022-12-20T12:45:03;4.83;;;3.77;;
8260;SDS011;64115;50.170;8.242;2022-12-20T12:47:33;4.70;;;3.60;;
8260;SDS011;64115;50.170;8.242;2022-12-20T12:50:06;3.60;;;3.30;;
8260;SDS011;64115;50.170;8.242;2022-12-20T12:52:44;3.77;;;3.27;;
8260;SDS011;64115;50.170;8.242;2022-12-20T13:00:59;4.63;;;3.20;;
8260;SDS011;64115;50.170;8.242;2022-12-20T13:03:42;3.47;;;3.17;;
8260;SDS011;64115;50.170;8.242;2022-12-20T13:09:15;3.30;;;3.00;;
8260;SDS011;64115;50.170;8.242;2022-12-20T13:11:47;4.07;;;3.10;;
8260;SDS011;64115;50.170;8.242;2022-12-20T13:23:09;3.70;;;3.10;;
8260;SDS011;64115;50.170;8.242;2022-12-20T13:25:41;3.20;;;2.97;;
8260;SDS011;64115;50.170;8.242;2022-12-20T13:31:29;4.03;;;3.20;;
8260;SDS011;64115;50.170;8.242;2022-12-20T13:33:59;4.33;;;3.10;;
8260;SDS011;64115;50.170;8.242;2022-12-20T13:36:34;3.33;;;3.00;;
8260;SDS011;64115;50.170;8.242;2022-12-20T13:39:03;4.13;;;3.43;;
8260;SDS011;64115;50.170;8.242;2022-12-20T13:41:45;3.00;;;2.70;;
8260;SDS011;64115;50.170;8.242;2022-12-20T13:44:34;3.97;;;2.60;;
8260;SDS011;64115;50.170;8.242;2022-12-20T13:50:21;5.40;;;2.80;;
8260;SDS011;64115;50.170;8.242;2022-12-20T13:52:51;3.63;;;2.50;;
8260;SDS011;64115;50.170;8.242;2022-12-20T13:55:22;4.97;;;2.40;;
8260;SDS011;64115;50.170;8.242;2022-12-20T13:58:05;2.93;;;2.60;;
8260;SDS011;64115;50.170;8.242;2022-12-20T14:00:39;3.13;;;2.83;;
8260;SDS011;64115;50.170;8.242;2022-12-20T14:03:09;3.43;;;2.70;;
8260;SDS011;64115;50.170;8.242;2022-12-20T14:05:45;3.50;;;2.87;;
8260;SDS011;64115;50.170;8.242;2022-12-20T14:08:13;3.17;;;2.67;;
8260;SDS011;64115;50.170;8.242;2022-12-20T14:10:42;3.17;;;2.80;;
8260;SDS011;64115;50.170;8.242;2022-12-20T14:13:16;3.30;;;3.00;;
8260;SDS011;64115;50.170;8.242;2022-12-20T14:15:47;3.27;;;2.90;;
8260;SDS011;64115;50.170;8.242;2022-12-20T14:18:16;3.33;;;2.53;;
8260;SDS011;64115;50.170;8.242;2022-12-20T14:20:45;2.70;;;2.50;;
8260;SDS011;64115;50.170;8.242;2022-12-20T14:23:15;3.17;;;2.70;;
8260;SDS011;64115;50.170;8.242;2022-12-20T14:25:45;7.23;;;2.90;;
8260;SDS011;64115;50.170;8.242;2022-12-20T14:28:16;3.93;;;2.80;;
8260;SDS011;64115;50.170;8.242;2022-12-20T14:30:51;3.97;;;2.80;;
8260;SDS011;64115;50.170;8.242;2022-12-20T14:33:19;3.27;;;2.70;;
8260;SDS011;64115;50.170;8.242;2022-12-20T14:35:52;3.50;;;3.00;;
8260;SDS011;64115;50.170;8.242;2022-12-20T14:38:20;3.20;;;2.67;;
8260;SDS011;64115;50.170;8.242;2022-12-20T14:40:48;4.60;;;2.70;;
8260;SDS011;64115;50.170;8.242;2022-12-20T14:43:19;2.77;;;2.57;;
8260;SDS011;64115;50.170;8.242;2022-12-20T14:46:06;3.47;;;2.67;;
8260;SDS011;64115;50.170;8.242;2022-12-20T14:48:40;4.20;;;2.70;;
8260;SDS011;64115;50.170;8.242;2022-12-20T14:51:08;2.87;;;2.53;;
8260;SDS011;64115;50.170;8.242;2022-12-20T14:53:35;3.70;;;2.80;;
8260;SDS011;64115;50.170;8.242;2022-12-20T14:56:04;4.13;;;3.00;;
8260;SDS011;64115;50.170;8.242;2022-12-20T14:58:38;4.43;;;2.70;;
8260;SDS011;64115;50.170;8.242;2022-12-20T15:01:16;3.00;;;2.70;;
8260;SDS011;64115;50.170;8.242;2022-12-20T15:03:48;3.40;;;2.80;;
8260;SDS011;64115;50.170;8.242;2022-12-20T15:06:29;3.30;;;2.80;;
8260;SDS011;64115;50.170;8.242;2022-12-20T15:08:57;3.60;;;2.70;;
8260;SDS011;64115;50.170;8.242;2022-12-20T15:11:24;2.93;;;2.73;;
8260;SDS011;64115;50.170;8.242;2022-12-20T15:13:52;3.47;;;2.70;;
8260;SDS011;64115;50.170;8.242;2022-12-20T15:16:22;2.83;;;2.60;;
8260;SDS011;64115;50.170;8.242;2022-12-20T15:18:50;2.70;;;2.50;;
8260;SDS011;64115;50.170;8.242;2022-12-20T15:21:22;2.73;;;2.53;;
8260;SDS011;64115;50.170;8.242;2022-12-20T15:23:53;2.70;;;2.50;;
8260;SDS011;64115;50.170;8.242;2022-12-20T15:26:22;5.17;;;3.07;;
8260;SDS011;64115;50.170;8.242;2022-12-20T15:28:50;2.73;;;2.50;;
8260;SDS011;64115;50.170;8.242;2022-12-20T15:31:17;5.27;;;2.67;;
8260;SDS011;64115;50.170;8.242;2022-12-20T15:33:46;3.73;;;2.70;;
8260;SDS011;64115;50.170;8.242;2022-12-20T15:36:15;3.20;;;2.90;;
8260;SDS011;64115;50.170;8.242;2022-12-20T15:38:43;3.37;;;3.07;;